»·PEaware :: EJA220 KEGE-KHCR

EJA220 :: KEGE-KHCR

FLIGHT INFORMATION

Flight Status: Arrived
Operator:
Netjets Aviation
More flights by this operator :: More flights under this callsign
Pilot: Ethan S. (29221)
Aircraft: CANADAIR CL-600 CHALLENGER
(CL60)
More flights by this aircraft type
Origin: KEGE Eagle Co Regl
United States
Destination: KHCR Heber Valley
United States
More flights between these airports :: More routes between these airports
Route: BEVVR1 SPRKT EKR
File this flight plan on PilotEdge
Remarks:
Altitude:
(Current/Filed)
30,000ft
Speed:
(Current/Filed)
465kts
Departed: 27-Nov-23 06:53 PM
Arrived: 27-Nov-23 07:33 PM
Distance/Time
Traveled:
213nm/0:39
Distance/Time
To Go:
Arrived

Flight Plot

Page will automatically refresh every two minutes.

Flight plan parsing failed; only flown route is shown


Map Options




Map Legend


Flown Route
Filed Route
Departure Airport
Arrival Airport
Navaid (VOR, NDB)
Fix

Horizontal Profiles

Position Reports

Time Latitude Longitude Heading Altitude Ground
Speed
27-Nov-23 18:28 39.641346 -106.909189 261 6550ft 0kts
27-Nov-23 18:29 39.641346 -106.909189 261 6550ft 0kts
27-Nov-23 18:30 39.641346 -106.909189 261 6550ft 0kts
27-Nov-23 18:31 39.641346 -106.909189 261 6550ft 0kts
27-Nov-23 18:32 39.641346 -106.909189 261 6550ft 0kts
27-Nov-23 18:33 39.641346 -106.909189 261 6550ft 0kts
27-Nov-23 18:34 39.641346 -106.909189 261 6550ft 0kts
27-Nov-23 18:35 39.641346 -106.909189 261 6550ft 0kts
27-Nov-23 18:36 39.641346 -106.909189 261 6550ft 0kts
27-Nov-23 18:37 39.641346 -106.909189 261 6550ft 0kts
27-Nov-23 18:38 39.641346 -106.909189 261 6550ft 0kts
27-Nov-23 18:39 39.641346 -106.909189 261 6550ft 0kts
27-Nov-23 18:40 39.641346 -106.909189 261 6550ft 0kts
27-Nov-23 18:41 39.641346 -106.909189 261 6550ft 0kts
27-Nov-23 18:42 39.641346 -106.909189 261 6550ft 0kts
27-Nov-23 18:43 39.641346 -106.909189 261 6550ft 0kts
27-Nov-23 18:44 39.641346 -106.909189 261 6550ft 0kts
27-Nov-23 18:45 39.641346 -106.909189 261 6550ft 0kts
27-Nov-23 18:46 39.641346 -106.909189 261 6550ft 0kts
27-Nov-23 18:47 39.641346 -106.909189 261 6550ft 0kts
27-Nov-23 18:48 39.641336 -106.909277 261 6550ft 2kts
27-Nov-23 18:49 39.642576 -106.907595 81 6550ft 13kts
27-Nov-23 18:50 39.643256 -106.901359 82 6550ft 5kts
27-Nov-23 18:51 39.643776 -106.900170 3 6550ft 8kts
27-Nov-23 18:52 39.640925 -106.928279 250 7229ft 180kts
27-Nov-23 18:53 39.590756 -106.979100 223 10264ft 254kts
27-Nov-23 18:54 39.586202 -107.066231 305 13858ft 258kts
27-Nov-23 18:55 39.646387 -107.108411 7 17662ft 272kts
27-Nov-23 18:56 39.721716 -107.093276 345 21577ft 281kts
27-Nov-23 18:57 39.779990 -107.176448 304 23179ft 359kts
27-Nov-23 18:58 39.837185 -107.288621 306 26083ft 382kts
27-Nov-23 18:59 39.898056 -107.406387 307 28506ft 400kts
27-Nov-23 19:00 39.959891 -107.531995 303 30004ft 431kts
27-Nov-23 19:01 40.007624 -107.683412 290 30040ft 459kts
27-Nov-23 19:02 40.046639 -107.840945 292 30041ft 453kts
27-Nov-23 19:03 40.079248 -108.000659 283 30099ft 458kts
27-Nov-23 19:04 40.100156 -108.165866 283 30112ft 461kts
27-Nov-23 19:05 40.121453 -108.330956 283 30110ft 461kts
27-Nov-23 19:06 40.142787 -108.496157 283 30118ft 459kts
27-Nov-23 19:07 40.163874 -108.661074 282 30133ft 461kts
27-Nov-23 19:08 40.184917 -108.827252 283 30182ft 462kts
27-Nov-23 19:09 40.205606 -108.992666 282 30170ft 461kts
27-Nov-23 19:10 40.226166 -109.158757 282 30212ft 462kts
27-Nov-23 19:11 40.246520 -109.325315 282 30180ft 462kts
27-Nov-23 19:12 40.266568 -109.491707 282 30216ft 462kts
27-Nov-23 19:13 40.286510 -109.658216 282 30234ft 464kts
27-Nov-23 19:14 40.306222 -109.825868 281 30186ft 463kts
27-Nov-23 19:15 40.325446 -109.992023 281 29407ft 455kts
27-Nov-23 19:16 40.343457 -110.149869 281 27283ft 421kts
27-Nov-23 19:17 40.360010 -110.296535 281 25203ft 394kts
27-Nov-23 19:18 40.375781 -110.437224 281 24492ft 392kts
27-Nov-23 19:19 40.391558 -110.579512 281 23780ft 393kts
27-Nov-23 19:20 40.406780 -110.718807 280 21978ft 378kts
27-Nov-23 19:21 40.421338 -110.853181 280 20138ft 366kts
27-Nov-23 19:22 40.435377 -110.984199 280 18275ft 356kts
27-Nov-23 19:23 40.452732 -111.106210 306 16406ft 314kts
27-Nov-23 19:24 40.511655 -111.175779 320 15409ft 250kts
27-Nov-23 19:25 40.549240 -111.228930 274 14677ft 172kts
27-Nov-23 19:26 40.540519 -111.287054 236 12737ft 167kts
27-Nov-23 19:27 40.501721 -111.324044 220 10270ft 174kts
27-Nov-23 19:28 40.507178 -111.379303 288 7898ft 165kts
27-Nov-23 19:29 40.530889 -111.427945 353 7647ft 155kts
27-Nov-23 19:30 40.533984 -111.385940 139 6978ft 138kts
27-Nov-23 19:31 40.502196 -111.397220 230 6187ft 143kts
27-Nov-23 19:32 40.480488 -111.430827 229 5615ft 14kts
27-Nov-23 19:33 40.481064 -111.428609 50 5621ft 19kts
27-Nov-23 19:34 40.483390 -111.424236 137 5627ft 7kts
27-Nov-23 19:35 40.483136 -111.424327 229 5627ft 0kts
27-Nov-23 19:36 40.483136 -111.424327 229 5627ft 0kts
27-Nov-23 19:37 40.483136 -111.424327 229 5627ft 0kts
27-Nov-23 19:38 40.483136 -111.424327 229 5627ft 0kts
27-Nov-23 19:39 40.483136 -111.424327 229 5627ft 0kts
27-Nov-23 19:40 40.483136 -111.424327 229 5627ft 0kts

Navigation Log

Ident Type
Flight plan parsing failed, navigation log unavailable